sensor_id;sensor_type;location;lat;lon;timestamp;pressure;altitude;pressure_sealevel;temperature;humidity
11343;BME280;5726;42.160;24.746;2023-11-19T00:00:25;99317.28;;;8.15;81.91
11343;BME280;5726;42.160;24.746;2023-11-19T00:02:50;99308.47;;;8.14;81.89
11343;BME280;5726;42.160;24.746;2023-11-19T00:05:16;99311.03;;;8.24;81.87
11343;BME280;5726;42.160;24.746;2023-11-19T00:07:42;99319.03;;;8.29;81.99
11343;BME280;5726;42.160;24.746;2023-11-19T00:10:17;99313.16;;;8.27;82.24
11343;BME280;5726;42.160;24.746;2023-11-19T00:12:49;99318.72;;;8.36;82.04
11343;BME280;5726;42.160;24.746;2023-11-19T00:15:18;99321.19;;;8.27;82.29
11343;BME280;5726;42.160;24.746;2023-11-19T00:17:47;99312.16;;;8.23;82.35
11343;BME280;5726;42.160;24.746;2023-11-19T00:20:22;99301.53;;;8.13;82.52
11343;BME280;5726;42.160;24.746;2023-11-19T00:22:47;99312.09;;;8.28;81.70
11343;BME280;5726;42.160;24.746;2023-11-19T00:25:16;99296.97;;;8.19;81.56
11343;BME280;5726;42.160;24.746;2023-11-19T00:27:42;99318.41;;;7.99;82.30
11343;BME280;5726;42.160;24.746;2023-11-19T00:30:10;99320.94;;;8.24;82.10
11343;BME280;5726;42.160;24.746;2023-11-19T00:32:36;99327.13;;;8.19;82.12
11343;BME280;5726;42.160;24.746;2023-11-19T00:35:04;99339.31;;;8.30;82.12
11343;BME280;5726;42.160;24.746;2023-11-19T00:37:30;99340.84;;;8.41;81.48
11343;BME280;5726;42.160;24.746;2023-11-19T00:39:55;99338.63;;;8.15;82.21
11343;BME280;5726;42.160;24.746;2023-11-19T00:42:22;99334.03;;;8.25;82.20
11343;BME280;5726;42.160;24.746;2023-11-19T00:44:49;99347.97;;;8.17;82.96
11343;BME280;5726;42.160;24.746;2023-11-19T00:47:14;99332.97;;;8.26;82.46
11343;BME280;5726;42.160;24.746;2023-11-19T00:49:40;99345.34;;;8.03;83.03
11343;BME280;5726;42.160;24.746;2023-11-19T00:52:05;99337.28;;;8.17;82.66
11343;BME280;5726;42.160;24.746;2023-11-19T00:54:32;99337.47;;;8.31;82.13
11343;BME280;5726;42.160;24.746;2023-11-19T00:56:57;99332.72;;;8.18;82.59
11343;BME280;5726;42.160;24.746;2023-11-19T00:59:23;99342.63;;;8.12;82.92
11343;BME280;5726;42.160;24.746;2023-11-19T01:01:49;99355.94;;;8.22;82.89
11343;BME280;5726;42.160;24.746;2023-11-19T01:04:14;99346.16;;;8.03;83.45
11343;BME280;5726;42.160;24.746;2023-11-19T01:06:40;99349.81;;;8.17;83.61
11343;BME280;5726;42.160;24.746;2023-11-19T01:09:07;99343.19;;;8.14;83.59
11343;BME280;5726;42.160;24.746;2023-11-19T01:11:34;99351.19;;;8.14;83.52
11343;BME280;5726;42.160;24.746;2023-11-19T01:13:59;99362.28;;;8.31;83.16
11343;BME280;5726;42.160;24.746;2023-11-19T01:16:26;99350.66;;;8.12;83.77
11343;BME280;5726;42.160;24.746;2023-11-19T01:18:51;99361.84;;;8.09;83.96
11343;BME280;5726;42.160;24.746;2023-11-19T01:21:18;99353.38;;;7.98;84.72
11343;BME280;5726;42.160;24.746;2023-11-19T01:23:43;99358.16;;;8.01;84.14
11343;BME280;5726;42.160;24.746;2023-11-19T01:26:12;99349.06;;;8.11;83.83
11343;BME280;5726;42.160;24.746;2023-11-19T01:28:39;99356.00;;;8.12;83.99
11343;BME280;5726;42.160;24.746;2023-11-19T01:31:12;99361.84;;;8.09;83.87
11343;BME280;5726;42.160;24.746;2023-11-19T01:33:39;99367.22;;;8.05;84.24
11343;BME280;5726;42.160;24.746;2023-11-19T01:36:06;99370.69;;;8.05;84.55
11343;BME280;5726;42.160;24.746;2023-11-19T01:38:33;99361.19;;;7.89;85.16
11343;BME280;5726;42.160;24.746;2023-11-19T01:40:59;99359.81;;;7.97;85.29
11343;BME280;5726;42.160;24.746;2023-11-19T01:43:39;99358.69;;;8.03;85.21
11343;BME280;5726;42.160;24.746;2023-11-19T01:46:08;99362.94;;;8.04;85.33
11343;BME280;5726;42.160;24.746;2023-11-19T01:48:41;99355.22;;;8.02;85.49
11343;BME280;5726;42.160;24.746;2023-11-19T01:51:08;99347.59;;;7.81;86.22
11343;BME280;5726;42.160;24.746;2023-11-19T01:53:36;99345.94;;;7.90;86.17
11343;BME280;5726;42.160;24.746;2023-11-19T01:56:02;99349.88;;;8.02;85.65
11343;BME280;5726;42.160;24.746;2023-11-19T01:58:28;99364.59;;;8.00;85.87
11343;BME280;5726;42.160;24.746;2023-11-19T02:00:56;99361.38;;;8.03;86.02
11343;BME280;5726;42.160;24.746;2023-11-19T02:03:22;99368.84;;;8.01;86.02
11343;BME280;5726;42.160;24.746;2023-11-19T02:05:49;99369.44;;;7.93;86.64
11343;BME280;5726;42.160;24.746;2023-11-19T02:08:16;99384.09;;;7.95;86.07
11343;BME280;5726;42.160;24.746;2023-11-19T02:10:41;99379.88;;;7.89;86.23
11343;BME280;5726;42.160;24.746;2023-11-19T02:13:08;99376.13;;;7.85;86.17
11343;BME280;5726;42.160;24.746;2023-11-19T02:15:35;99373.94;;;7.97;86.40
11343;BME280;5726;42.160;24.746;2023-11-19T02:18:33;99370.47;;;7.97;85.87
11343;BME280;5726;42.160;24.746;2023-11-19T02:20:59;99357.69;;;7.89;86.18
11343;BME280;5726;42.160;24.746;2023-11-19T02:23:28;99368.38;;;7.94;86.44
11343;BME280;5726;42.160;24.746;2023-11-19T02:28:36;99375.97;;;7.67;86.73
11343;BME280;5726;42.160;24.746;2023-11-19T02:31:02;99380.13;;;7.88;86.03
11343;BME280;5726;42.160;24.746;2023-11-19T02:33:30;99376.34;;;7.99;84.97
11343;BME280;5726;42.160;24.746;2023-11-19T02:35:55;99390.47;;;7.99;85.07
11343;BME280;5726;42.160;24.746;2023-11-19T02:38:21;99397.25;;;7.82;85.44
11343;BME280;5726;42.160;24.746;2023-11-19T02:40:47;99377.63;;;8.06;84.33
11343;BME280;5726;42.160;24.746;2023-11-19T02:43:13;99381.16;;;7.92;84.48
11343;BME280;5726;42.160;24.746;2023-11-19T02:45:38;99391.84;;;7.92;84.55
11343;BME280;5726;42.160;24.746;2023-11-19T02:48:04;99401.97;;;7.95;84.10
11343;BME280;5726;42.160;24.746;2023-11-19T02:50:31;99397.13;;;8.02;83.86
11343;BME280;5726;42.160;24.746;2023-11-19T02:52:57;99387.00;;;7.99;83.59
11343;BME280;5726;42.160;24.746;2023-11-19T02:55:23;99399.84;;;7.92;84.17
11343;BME280;5726;42.160;24.746;2023-11-19T02:57:50;99399.84;;;7.97;83.99
11343;BME280;5726;42.160;24.746;2023-11-19T03:00:17;99387.59;;;7.91;83.81
11343;BME280;5726;42.160;24.746;2023-11-19T03:02:46;99374.22;;;7.96;83.50
11343;BME280;5726;42.160;24.746;2023-11-19T03:05:14;99371.53;;;7.96;83.73
11343;BME280;5726;42.160;24.746;2023-11-19T03:07:41;99373.94;;;7.97;83.50
11343;BME280;5726;42.160;24.746;2023-11-19T03:10:08;99379.28;;;7.97;83.49
11343;BME280;5726;42.160;24.746;2023-11-19T03:12:34;99381.16;;;7.92;83.16
11343;BME280;5726;42.160;24.746;2023-11-19T03:15:00;99396.66;;;7.90;83.54
11343;BME280;5726;42.160;24.746;2023-11-19T03:17:26;99375.47;;;8.08;82.73
11343;BME280;5726;42.160;24.746;2023-11-19T03:19:51;99388.97;;;7.83;83.57
11343;BME280;5726;42.160;24.746;2023-11-19T03:22:17;99376.91;;;7.91;83.32
11343;BME280;5726;42.160;24.746;2023-11-19T03:24:42;99371.50;;;8.01;82.85
11343;BME280;5726;42.160;24.746;2023-11-19T03:27:08;99374.72;;;7.98;82.95
11343;BME280;5726;42.160;24.746;2023-11-19T03:29:33;99373.44;;;7.95;83.14
11343;BME280;5726;42.160;24.746;2023-11-19T03:31:59;99372.41;;;7.86;83.47
11343;BME280;5726;42.160;24.746;2023-11-19T03:34:24;99379.88;;;7.84;83.37
11343;BME280;5726;42.160;24.746;2023-11-19T03:36:49;99387.56;;;7.96;82.72
11343;BME280;5726;42.160;24.746;2023-11-19T03:39:15;99354.00;;;7.85;83.01
11343;BME280;5726;42.160;24.746;2023-11-19T03:41:40;99383.56;;;7.93;83.19
11343;BME280;5726;42.160;24.746;2023-11-19T03:44:06;99371.03;;;7.94;83.39
11343;BME280;5726;42.160;24.746;2023-11-19T03:46:31;99368.88;;;7.96;83.52
11343;BME280;5726;42.160;24.746;2023-11-19T03:48:57;99395.88;;;7.84;83.91
11343;BME280;5726;42.160;24.746;2023-11-19T03:51:22;99373.75;;;7.84;84.02
11343;BME280;5726;42.160;24.746;2023-11-19T03:53:48;99375.06;;;7.81;84.23
11343;BME280;5726;42.160;24.746;2023-11-19T03:56:13;99383.34;;;7.80;84.51
11343;BME280;5726;42.160;24.746;2023-11-19T03:58:39;99380.13;;;7.88;84.80
11343;BME280;5726;42.160;24.746;2023-11-19T04:01:05;99386.91;;;7.65;85.74
11343;BME280;5726;42.160;24.746;2023-11-19T04:03:31;99374.66;;;7.55;86.48
11343;BME280;5726;42.160;24.746;2023-11-19T04:05:56;99390.13;;;7.53;86.49
11343;BME280;5726;42.160;24.746;2023-11-19T04:08:22;99393.59;;;7.53;85.85
11343;BME280;5726;42.160;24.746;2023-11-19T04:10:48;99402.41;;;7.49;85.83
11343;BME280;5726;42.160;24.746;2023-11-19T04:13:13;99407.75;;;7.54;85.15
11343;BME280;5726;42.160;24.746;2023-11-19T04:15:39;99414.16;;;7.43;85.54
11343;BME280;5726;42.160;24.746;2023-11-19T04:18:04;99420.56;;;7.47;85.69
11343;BME280;5726;42.160;24.746;2023-11-19T04:20:30;99417.59;;;7.58;85.18
11343;BME280;5726;42.160;24.746;2023-11-19T04:22:57;99412.25;;;7.58;85.10
11343;BME280;5726;42.160;24.746;2023-11-19T04:25:22;99421.38;;;7.42;85.45
11343;BME280;5726;42.160;24.746;2023-11-19T04:27:51;99424.28;;;7.46;84.91
11343;BME280;5726;42.160;24.746;2023-11-19T04:30:17;99423.00;;;7.33;84.69
11343;BME280;5726;42.160;24.746;2023-11-19T04:32:43;99416.25;;;7.65;83.40
11343;BME280;5726;42.160;24.746;2023-11-19T04:35:09;99421.81;;;7.74;82.05
11343;BME280;5726;42.160;24.746;2023-11-19T04:37:35;99423.41;;;7.75;82.38
11343;BME280;5726;42.160;24.746;2023-11-19T04:40:00;99435.97;;;7.69;82.61
11343;BME280;5726;42.160;24.746;2023-11-19T04:42:26;99422.41;;;7.61;82.56
11343;BME280;5726;42.160;24.746;2023-11-19T04:44:51;99432.00;;;7.57;83.41
11343;BME280;5726;42.160;24.746;2023-11-19T04:47:17;99427.75;;;7.51;83.52
11343;BME280;5726;42.160;24.746;2023-11-19T04:49:43;99411.50;;;7.48;83.75
11343;BME280;5726;42.160;24.746;2023-11-19T04:52:08;99429.34;;;7.52;83.74
11343;BME280;5726;42.160;24.746;2023-11-19T04:54:34;99412.25;;;7.58;83.32
11343;BME280;5726;42.160;24.746;2023-11-19T04:56:59;99422.13;;;7.58;83.62
11343;BME280;5726;42.160;24.746;2023-11-19T04:59:25;99424.03;;;7.52;83.81
11343;BME280;5726;42.160;24.746;2023-11-19T05:01:50;99419.19;;;7.54;84.10
11343;BME280;5726;42.160;24.746;2023-11-19T05:04:17;99411.19;;;7.54;84.51
11343;BME280;5726;42.160;24.746;2023-11-19T05:06:44;99407.00;;;7.28;85.77
11343;BME280;5726;42.160;24.746;2023-11-19T05:09:10;99431.81;;;7.24;86.21
11343;BME280;5726;42.160;24.746;2023-11-19T05:11:38;99427.00;;;7.16;87.74
11343;BME280;5726;42.160;24.746;2023-11-19T05:14:04;99433.66;;;7.28;89.16
11343;BME280;5726;42.160;24.746;2023-11-19T05:16:30;99419.72;;;7.56;88.44
11343;BME280;5726;42.160;24.746;2023-11-19T05:18:55;99431.97;;;7.67;85.66
11343;BME280;5726;42.160;24.746;2023-11-19T05:21:21;99438.38;;;7.76;85.91
11343;BME280;5726;42.160;24.746;2023-11-19T05:23:47;99433.59;;;7.58;84.93
11343;BME280;5726;42.160;24.746;2023-11-19T05:26:22;99442.66;;;7.67;84.89
11343;BME280;5726;42.160;24.746;2023-11-19T05:28:48;99442.69;;;7.47;83.89
11343;BME280;5726;42.160;24.746;2023-11-19T05:31:14;99456.31;;;7.36;84.24
11343;BME280;5726;42.160;24.746;2023-11-19T05:33:40;99451.25;;;7.29;84.39
11343;BME280;5726;42.160;24.746;2023-11-19T05:36:05;99449.13;;;7.21;84.73
11343;BME280;5726;42.160;24.746;2023-11-19T05:38:33;99453.94;;;7.34;84.41
11343;BME280;5726;42.160;24.746;2023-11-19T05:40:59;99459.25;;;7.29;84.37
11343;BME280;5726;42.160;24.746;2023-11-19T05:43:24;99453.09;;;7.44;84.15
11343;BME280;5726;42.160;24.746;2023-11-19T05:45:50;99462.44;;;7.36;84.37
11343;BME280;5726;42.160;24.746;2023-11-19T05:48:15;99463.53;;;7.30;85.09
11343;BME280;5726;42.160;24.746;2023-11-19T05:50:42;99468.56;;;7.37;84.95
11343;BME280;5726;42.160;24.746;2023-11-19T05:53:07;99459.47;;;7.58;84.10
11343;BME280;5726;42.160;24.746;2023-11-19T05:55:38;99454.88;;;7.78;82.85
11343;BME280;5726;42.160;24.746;2023-11-19T05:58:15;99467.97;;;7.69;83.22
11343;BME280;5726;42.160;24.746;2023-11-19T06:00:41;99462.41;;;7.66;83.43
11343;BME280;5726;42.160;24.746;2023-11-19T06:03:07;99462.66;;;7.55;83.68
11343;BME280;5726;42.160;24.746;2023-11-19T06:05:33;99465.91;;;7.42;84.21
11343;BME280;5726;42.160;24.746;2023-11-19T06:07:58;99467.75;;;7.51;83.95
11343;BME280;5726;42.160;24.746;2023-11-19T06:10:24;99477.63;;;7.56;83.86
11343;BME280;5726;42.160;24.746;2023-11-19T06:12:59;99472.28;;;7.56;84.20
11343;BME280;5726;42.160;24.746;2023-11-19T06:15:25;99480.03;;;7.57;83.72
11343;BME280;5726;42.160;24.746;2023-11-19T06:17:52;99478.41;;;7.56;83.79
11343;BME280;5726;42.160;24.746;2023-11-19T06:20:18;99491.50;;;7.48;84.07
11343;BME280;5726;42.160;24.746;2023-11-19T06:22:45;99470.94;;;7.73;83.63
11343;BME280;5726;42.160;24.746;2023-11-19T06:25:11;99487.47;;;7.70;82.77
11343;BME280;5726;42.160;24.746;2023-11-19T06:27:36;99496.56;;;7.64;83.14
11343;BME280;5726;42.160;24.746;2023-11-19T06:30:02;99463.47;;;7.60;83.38
11343;BME280;5726;42.160;24.746;2023-11-19T06:32:28;99485.88;;;7.59;83.19
11343;BME280;5726;42.160;24.746;2023-11-19T06:34:54;99477.56;;;7.85;82.07
11343;BME280;5726;42.160;24.746;2023-11-19T06:37:20;99494.13;;;7.77;82.63
11343;BME280;5726;42.160;24.746;2023-11-19T06:39:45;99499.16;;;7.84;82.36
11343;BME280;5726;42.160;24.746;2023-11-19T06:42:11;99507.16;;;7.89;81.83
11343;BME280;5726;42.160;24.746;2023-11-19T06:44:36;99515.94;;;7.99;81.51
11343;BME280;5726;42.160;24.746;2023-11-19T06:47:02;99513.56;;;7.93;81.79
11343;BME280;5726;42.160;24.746;2023-11-19T06:49:27;99516.22;;;7.93;81.22
11343;BME280;5726;42.160;24.746;2023-11-19T06:51:53;99506.31;;;8.03;81.00
11343;BME280;5726;42.160;24.746;2023-11-19T06:54:18;99511.41;;;8.05;81.33
11343;BME280;5726;42.160;24.746;2023-11-19T06:56:44;99506.34;;;7.98;81.20
11343;BME280;5726;42.160;24.746;2023-11-19T06:59:09;99504.97;;;8.15;80.65
11343;BME280;5726;42.160;24.746;2023-11-19T07:01:36;99516.72;;;8.19;80.06
11343;BME280;5726;42.160;24.746;2023-11-19T07:04:02;99511.91;;;8.16;80.39
11343;BME280;5726;42.160;24.746;2023-11-19T07:06:33;99520.16;;;8.30;79.80
11343;BME280;5726;42.160;24.746;2023-11-19T07:08:59;99522.50;;;8.36;79.88
11343;BME280;5726;42.160;24.746;2023-11-19T07:11:25;99535.81;;;8.51;78.98
11343;BME280;5726;42.160;24.746;2023-11-19T07:13:50;99508.81;;;8.57;78.69
11343;BME280;5726;42.160;24.746;2023-11-19T07:16:16;99518.75;;;8.47;79.17
11343;BME280;5726;42.160;24.746;2023-11-19T07:18:41;99495.72;;;8.56;78.59
11343;BME280;5726;42.160;24.746;2023-11-19T07:21:09;99490.38;;;8.56;78.28
11343;BME280;5726;42.160;24.746;2023-11-19T07:23:35;99492.03;;;8.47;78.59
11343;BME280;5726;42.160;24.746;2023-11-19T07:26:01;99496.22;;;8.58;78.30
11343;BME280;5726;42.160;24.746;2023-11-19T07:28:29;99501.53;;;8.63;78.53
11343;BME280;5726;42.160;24.746;2023-11-19T07:30:55;99529.84;;;8.69;77.53
11343;BME280;5726;42.160;24.746;2023-11-19T07:33:21;99558.91;;;8.80;77.22
11343;BME280;5726;42.160;24.746;2023-11-19T07:35:46;99576.53;;;8.86;76.68
11343;BME280;5726;42.160;24.746;2023-11-19T07:38:13;99573.53;;;8.93;76.44
11343;BME280;5726;42.160;24.746;2023-11-19T07:40:38;99589.03;;;8.96;76.64
11343;BME280;5726;42.160;24.746;2023-11-19T07:43:04;99595.41;;;9.04;76.07
11343;BME280;5726;42.160;24.746;2023-11-19T07:45:29;99567.59;;;9.05;75.02
11343;BME280;5726;42.160;24.746;2023-11-19T07:47:54;99590.13;;;8.95;75.85
11343;BME280;5726;42.160;24.746;2023-11-19T07:50:20;99577.31;;;8.87;75.74
11343;BME280;5726;42.160;24.746;2023-11-19T07:52:45;99571.97;;;8.92;76.16
11343;BME280;5726;42.160;24.746;2023-11-19T07:55:11;99574.19;;;9.18;75.69
11343;BME280;5726;42.160;24.746;2023-11-19T07:57:37;99571.78;;;9.21;75.13
11343;BME280;5726;42.160;24.746;2023-11-19T08:00:03;99580.34;;;9.18;75.51
11343;BME280;5726;42.160;24.746;2023-11-19T08:02:29;99536.75;;;9.18;74.88
11343;BME280;5726;42.160;24.746;2023-11-19T08:04:54;99563.75;;;9.21;74.89
11343;BME280;5726;42.160;24.746;2023-11-19T08:07:21;99552.56;;;9.14;74.86
11343;BME280;5726;42.160;24.746;2023-11-19T08:09:47;99572.34;;;9.18;75.68
11343;BME280;5726;42.160;24.746;2023-11-19T08:12:13;99548.72;;;9.25;75.50
11343;BME280;5726;42.160;24.746;2023-11-19T08:14:41;99571.41;;;9.33;75.16
11343;BME280;5726;42.160;24.746;2023-11-19T08:17:06;99573.97;;;9.48;74.94
11343;BME280;5726;42.160;24.746;2023-11-19T08:19:32;99569.78;;;9.70;75.13
11343;BME280;5726;42.160;24.746;2023-11-19T08:21:58;99584.28;;;9.92;73.64
11343;BME280;5726;42.160;24.746;2023-11-19T08:24:23;99572.66;;;10.06;77.03
11343;BME280;5726;42.160;24.746;2023-11-19T08:26:49;99578.22;;;10.38;74.76
11343;BME280;5726;42.160;24.746;2023-11-19T08:29:14;99569.69;;;10.31;71.38
11343;BME280;5726;42.160;24.746;2023-11-19T08:31:40;99576.31;;;10.15;71.77
11343;BME280;5726;42.160;24.746;2023-11-19T08:34:06;99571.66;;;10.26;72.04
11343;BME280;5726;42.160;24.746;2023-11-19T08:36:34;99576.03;;;10.40;71.09
11343;BME280;5726;42.160;24.746;2023-11-19T08:38:59;99577.13;;;10.16;71.57
11343;BME280;5726;42.160;24.746;2023-11-19T08:41:25;99576.00;;;9.94;72.40
11343;BME280;5726;42.160;24.746;2023-11-19T08:43:51;99591.63;;;9.82;73.39
11343;BME280;5726;42.160;24.746;2023-11-19T08:46:17;99575.06;;;10.08;72.58
11343;BME280;5726;42.160;24.746;2023-11-19T08:48:42;99594.44;;;10.00;72.51
11343;BME280;5726;42.160;24.746;2023-11-19T08:51:08;99598.41;;;10.02;74.95
11343;BME280;5726;42.160;24.746;2023-11-19T08:53:33;99603.84;;;9.93;72.75
11343;BME280;5726;42.160;24.746;2023-11-19T08:55:59;99612.22;;;10.14;72.19
11343;BME280;5726;42.160;24.746;2023-11-19T08:58:25;99601.94;;;9.98;73.16
11343;BME280;5726;42.160;24.746;2023-11-19T09:00:51;99616.38;;;10.02;71.87
11343;BME280;5726;42.160;24.746;2023-11-19T09:03:17;99613.97;;;10.01;72.04
11343;BME280;5726;42.160;24.746;2023-11-19T09:05:42;99613.72;;;10.25;74.14
11343;BME280;5726;42.160;24.746;2023-11-19T09:08:08;99630.59;;;10.49;71.61
11343;BME280;5726;42.160;24.746;2023-11-19T09:10:34;99620.75;;;10.21;71.17
11343;BME280;5726;42.160;24.746;2023-11-19T09:12:59;99627.03;;;10.35;70.24
11343;BME280;5726;42.160;24.746;2023-11-19T09:15:24;99619.03;;;10.30;73.34
11343;BME280;5726;42.160;24.746;2023-11-19T09:17:50;99613.34;;;10.37;71.63
11343;BME280;5726;42.160;24.746;2023-11-19T09:20:16;99624.28;;;10.63;71.80
11343;BME280;5726;42.160;24.746;2023-11-19T09:22:42;99615.38;;;10.91;70.79
11343;BME280;5726;42.160;24.746;2023-11-19T09:25:08;99615.84;;;10.75;72.58
11343;BME280;5726;42.160;24.746;2023-11-19T09:27:34;99606.09;;;10.84;72.08
11343;BME280;5726;42.160;24.746;2023-11-19T09:29:59;99604.19;;;10.61;70.01
11343;BME280;5726;42.160;24.746;2023-11-19T09:32:25;99618.91;;;10.40;70.09
11343;BME280;5726;42.160;24.746;2023-11-19T09:34:51;99598.03;;;10.37;68.75
11343;BME280;5726;42.160;24.746;2023-11-19T09:37:16;99606.56;;;10.44;68.90
11343;BME280;5726;42.160;24.746;2023-11-19T09:39:42;99615.59;;;10.25;69.64
11343;BME280;5726;42.160;24.746;2023-11-19T09:42:12;99602.00;;;10.16;69.82
11343;BME280;5726;42.160;24.746;2023-11-19T09:44:42;99582.59;;;10.29;69.11
11343;BME280;5726;42.160;24.746;2023-11-19T09:47:08;99606.94;;;10.33;68.88
11343;BME280;5726;42.160;24.746;2023-11-19T09:49:35;99603.53;;;10.27;67.86
11343;BME280;5726;42.160;24.746;2023-11-19T09:52:01;99611.22;;;10.34;67.25
11343;BME280;5726;42.160;24.746;2023-11-19T09:54:28;99618.47;;;10.33;67.20
11343;BME280;5726;42.160;24.746;2023-11-19T09:56:56;99612.47;;;10.41;65.88
11343;BME280;5726;42.160;24.746;2023-11-19T09:59:26;99623.72;;;10.43;66.54
11343;BME280;5726;42.160;24.746;2023-11-19T10:01:52;99610.44;;;10.33;66.67
11343;BME280;5726;42.160;24.746;2023-11-19T10:04:18;99616.81;;;10.37;66.23
11343;BME280;5726;42.160;24.746;2023-11-19T10:06:44;99615.38;;;10.21;67.12
11343;BME280;5726;42.160;24.746;2023-11-19T10:09:12;99623.72;;;10.43;67.13
11343;BME280;5726;42.160;24.746;2023-11-19T10:11:37;99621.59;;;10.63;65.63
11343;BME280;5726;42.160;24.746;2023-11-19T10:14:03;99622.75;;;10.57;65.58
11343;BME280;5726;42.160;24.746;2023-11-19T10:16:29;99606.44;;;10.31;66.54
11343;BME280;5726;42.160;24.746;2023-11-19T10:18:56;99602.22;;;10.25;67.16
11343;BME280;5726;42.160;24.746;2023-11-19T10:21:22;99597.44;;;10.45;66.52
11343;BME280;5726;42.160;24.746;2023-11-19T10:23:53;99610.78;;;10.50;66.42
11343;BME280;5726;42.160;24.746;2023-11-19T10:26:22;99579.63;;;10.54;65.85
11343;BME280;5726;42.160;24.746;2023-11-19T10:28:48;99591.66;;;10.56;66.07
11343;BME280;5726;42.160;24.746;2023-11-19T10:31:15;99597.31;;;10.55;66.40
11343;BME280;5726;42.160;24.746;2023-11-19T10:33:42;99596.88;;;10.90;65.56
11343;BME280;5726;42.160;24.746;2023-11-19T10:36:10;99576.06;;;10.82;65.44
11343;BME280;5726;42.160;24.746;2023-11-19T10:38:38;99566.34;;;10.86;64.96
11343;BME280;5726;42.160;24.746;2023-11-19T10:41:04;99568.28;;;10.62;65.56
11343;BME280;5726;42.160;24.746;2023-11-19T10:43:31;99550.47;;;10.71;66.15
11343;BME280;5726;42.160;24.746;2023-11-19T10:46:13;99558.28;;;10.67;65.47
11343;BME280;5726;42.160;24.746;2023-11-19T10:48:39;99545.84;;;10.76;65.67
11343;BME280;5726;42.160;24.746;2023-11-19T10:51:06;99550.72;;;10.93;65.24
11343;BME280;5726;42.160;24.746;2023-11-19T10:53:37;99568.91;;;10.96;64.41
11343;BME280;5726;42.160;24.746;2023-11-19T10:56:06;99558.81;;;10.88;64.74
11343;BME280;5726;42.160;24.746;2023-11-19T10:58:35;99560.97;;;10.67;65.69
11343;BME280;5726;42.160;24.746;2023-11-19T11:01:08;99558.66;;;10.79;64.32
11343;BME280;5726;42.160;24.746;2023-11-19T11:03:40;99557.47;;;10.67;64.74
11343;BME280;5726;42.160;24.746;2023-11-19T11:06:06;99561.47;;;10.69;64.62
11343;BME280;5726;42.160;24.746;2023-11-19T11:08:32;99560.72;;;10.64;64.87
11343;BME280;5726;42.160;24.746;2023-11-19T11:11:01;99568.66;;;10.74;64.06
11343;BME280;5726;42.160;24.746;2023-11-19T11:13:27;99570.38;;;10.65;64.58
11343;BME280;5726;42.160;24.746;2023-11-19T11:15:55;99567.06;;;10.73;64.25
11343;BME280;5726;42.160;24.746;2023-11-19T11:18:23;99568.97;;;10.91;64.20
11343;BME280;5726;42.160;24.746;2023-11-19T11:20:52;99556.56;;;10.95;63.70
11343;BME280;5726;42.160;24.746;2023-11-19T11:28:43;99546.25;;;10.83;62.58
11343;BME280;5726;42.160;24.746;2023-11-19T11:31:15;99520.34;;;10.97;62.92
11343;BME280;5726;42.160;24.746;2023-11-19T11:34:26;99543.81;;;10.87;62.97
11343;BME280;5726;42.160;24.746;2023-11-19T11:39:46;99511.09;;;11.21;63.63
11343;BME280;5726;42.160;24.746;2023-11-19T11:50:14;99493.28;;;11.12;62.26
11343;BME280;5726;42.160;24.746;2023-11-19T11:55:28;99494.84;;;11.13;62.30
11343;BME280;5726;42.160;24.746;2023-11-19T11:57:55;99493.22;;;10.98;62.47
11343;BME280;5726;42.160;24.746;2023-11-19T12:00:28;99474.25;;;11.08;61.96
11343;BME280;5726;42.160;24.746;2023-11-19T12:03:02;99470.44;;;10.96;62.53
11343;BME280;5726;42.160;24.746;2023-11-19T12:05:29;99463.72;;;10.98;62.58
11343;BME280;5726;42.160;24.746;2023-11-19T12:08:02;99464.28;;;10.96;62.81
11343;BME280;5726;42.160;24.746;2023-11-19T12:10:33;99469.63;;;11.14;60.94
11343;BME280;5726;42.160;24.746;2023-11-19T12:13:05;99475.44;;;11.21;60.49
11343;BME280;5726;42.160;24.746;2023-11-19T12:18:29;99483.78;;;11.01;60.96
11343;BME280;5726;42.160;24.746;2023-11-19T12:20:56;99456.50;;;11.12;60.84
11343;BME280;5726;42.160;24.746;2023-11-19T12:23:25;99480.22;;;11.05;61.14
11343;BME280;5726;42.160;24.746;2023-11-19T12:25:51;99470.88;;;11.03;61.54
11343;BME280;5726;42.160;24.746;2023-11-19T12:28:17;99474.78;;;11.10;61.71
11343;BME280;5726;42.160;24.746;2023-11-19T12:30:44;99458.44;;;11.25;60.63
11343;BME280;5726;42.160;24.746;2023-11-19T12:33:11;99457.81;;;11.15;61.53
11343;BME280;5726;42.160;24.746;2023-11-19T12:35:44;99457.81;;;11.15;62.38
11343;BME280;5726;42.160;24.746;2023-11-19T12:38:26;99455.41;;;11.13;62.36
11343;BME280;5726;42.160;24.746;2023-11-19T12:41:04;99457.81;;;11.15;62.65
11343;BME280;5726;42.160;24.746;2023-11-19T12:43:30;99446.81;;;11.30;61.56
11343;BME280;5726;42.160;24.746;2023-11-19T12:45:56;99440.94;;;11.28;61.24
11343;BME280;5726;42.160;24.746;2023-11-19T12:48:21;99442.16;;;11.03;61.95
11343;BME280;5726;42.160;24.746;2023-11-19T12:51:05;99440.91;;;11.14;63.08
11343;BME280;5726;42.160;24.746;2023-11-19T12:53:47;99425.59;;;11.15;61.58
11343;BME280;5726;42.160;24.746;2023-11-19T12:56:14;99431.31;;;11.27;61.79
11343;BME280;5726;42.160;24.746;2023-11-19T12:58:41;99421.78;;;11.34;61.70
11343;BME280;5726;42.160;24.746;2023-11-19T13:01:08;99432.69;;;11.24;61.91
11343;BME280;5726;42.160;24.746;2023-11-19T13:03:38;99424.22;;;11.17;61.31
11343;BME280;5726;42.160;24.746;2023-11-19T13:06:13;99442.94;;;11.22;61.31
11343;BME280;5726;42.160;24.746;2023-11-19T13:08:46;99442.63;;;11.24;61.58
11343;BME280;5726;42.160;24.746;2023-11-19T13:11:14;99441.38;;;11.03;62.14
11343;BME280;5726;42.160;24.746;2023-11-19T13:14:02;99419.69;;;11.31;61.53
11343;BME280;5726;42.160;24.746;2023-11-19T13:16:33;99413.66;;;11.07;62.20
11343;BME280;5726;42.160;24.746;2023-11-19T13:19:01;99408.78;;;11.09;62.48
11343;BME280;5726;42.160;24.746;2023-11-19T13:21:27;99416.06;;;11.09;62.51
11343;BME280;5726;42.160;24.746;2023-11-19T13:23:52;99420.19;;;11.01;62.63
11343;BME280;5726;42.160;24.746;2023-11-19T13:26:17;99423.13;;;11.18;62.30
11343;BME280;5726;42.160;24.746;2023-11-19T13:28:43;99414.41;;;10.95;62.55
11343;BME280;5726;42.160;24.746;2023-11-19T13:31:09;99420.25;;;10.96;62.79